sensor_id;sensor_type;location;lat;lon;timestamp;temperature;humidity
8860;DHT22;4466;50.948;4.832;2024-02-26T00:02:16;7.80;99.90
8860;DHT22;4466;50.948;4.832;2024-02-26T00:04:42;7.80;99.90
8860;DHT22;4466;50.948;4.832;2024-02-26T00:07:08;7.80;99.90
8860;DHT22;4466;50.948;4.832;2024-02-26T00:09:33;7.80;99.90
8860;DHT22;4466;50.948;4.832;2024-02-26T00:12:04;7.70;99.90
8860;DHT22;4466;50.948;4.832;2024-02-26T00:14:30;7.70;99.90
8860;DHT22;4466;50.948;4.832;2024-02-26T00:16:56;7.70;99.90
8860;DHT22;4466;50.948;4.832;2024-02-26T00:19:22;7.70;99.90
8860;DHT22;4466;50.948;4.832;2024-02-26T00:21:47;7.70;99.90
8860;DHT22;4466;50.948;4.832;2024-02-26T00:24:13;7.70;99.90
8860;DHT22;4466;50.948;4.832;2024-02-26T00:26:39;7.70;99.90
8860;DHT22;4466;50.948;4.832;2024-02-26T00:29:05;7.70;99.90
8860;DHT22;4466;50.948;4.832;2024-02-26T00:31:31;7.60;99.90
8860;DHT22;4466;50.948;4.832;2024-02-26T00:33:56;7.70;99.90
8860;DHT22;4466;50.948;4.832;2024-02-26T00:36:22;7.60;99.90
8860;DHT22;4466;50.948;4.832;2024-02-26T00:38:48;7.60;99.90
8860;DHT22;4466;50.948;4.832;2024-02-26T00:41:20;7.60;99.90
8860;DHT22;4466;50.948;4.832;2024-02-26T00:43:46;7.60;99.90
8860;DHT22;4466;50.948;4.832;2024-02-26T00:46:11;7.60;99.90
8860;DHT22;4466;50.948;4.832;2024-02-26T00:48:37;7.60;99.90
8860;DHT22;4466;50.948;4.832;2024-02-26T00:51:03;7.60;99.90
8860;DHT22;4466;50.948;4.832;2024-02-26T00:53:33;7.50;99.90
8860;DHT22;4466;50.948;4.832;2024-02-26T00:55:59;7.50;99.90
8860;DHT22;4466;50.948;4.832;2024-02-26T00:58:25;7.50;99.90
8860;DHT22;4466;50.948;4.832;2024-02-26T01:00:50;7.50;99.90
8860;DHT22;4466;50.948;4.832;2024-02-26T01:03:17;7.50;99.90
8860;DHT22;4466;50.948;4.832;2024-02-26T01:05:43;7.50;99.90
8860;DHT22;4466;50.948;4.832;2024-02-26T01:08:09;7.50;99.90
8860;DHT22;4466;50.948;4.832;2024-02-26T01:10:34;7.50;99.90
8860;DHT22;4466;50.948;4.832;2024-02-26T01:13:01;7.50;99.90
8860;DHT22;4466;50.948;4.832;2024-02-26T01:15:26;7.40;99.90
8860;DHT22;4466;50.948;4.832;2024-02-26T01:17:52;7.50;99.90
8860;DHT22;4466;50.948;4.832;2024-02-26T01:20:18;7.40;99.90
8860;DHT22;4466;50.948;4.832;2024-02-26T01:22:44;7.40;99.90
8860;DHT22;4466;50.948;4.832;2024-02-26T01:25:09;7.40;99.90
8860;DHT22;4466;50.948;4.832;2024-02-26T01:27:36;7.40;99.90
8860;DHT22;4466;50.948;4.832;2024-02-26T01:30:05;7.40;99.90
8860;DHT22;4466;50.948;4.832;2024-02-26T01:32:31;7.40;99.90
8860;DHT22;4466;50.948;4.832;2024-02-26T01:34:57;7.40;99.90
8860;DHT22;4466;50.948;4.832;2024-02-26T01:37:23;7.30;99.90
8860;DHT22;4466;50.948;4.832;2024-02-26T01:39:49;7.30;99.90
8860;DHT22;4466;50.948;4.832;2024-02-26T01:42:15;7.30;99.90
8860;DHT22;4466;50.948;4.832;2024-02-26T01:44:41;7.30;99.90
8860;DHT22;4466;50.948;4.832;2024-02-26T01:47:11;7.30;99.90
8860;DHT22;4466;50.948;4.832;2024-02-26T01:49:37;7.30;99.90
8860;DHT22;4466;50.948;4.832;2024-02-26T01:52:04;7.30;99.90
8860;DHT22;4466;50.948;4.832;2024-02-26T01:54:32;7.30;99.90
8860;DHT22;4466;50.948;4.832;2024-02-26T01:56:59;7.30;99.90
8860;DHT22;4466;50.948;4.832;2024-02-26T01:59:25;7.20;99.90
8860;DHT22;4466;50.948;4.832;2024-02-26T02:01:54;7.20;99.90
8860;DHT22;4466;50.948;4.832;2024-02-26T02:04:22;7.20;99.90
8860;DHT22;4466;50.948;4.832;2024-02-26T02:06:48;7.20;99.90
8860;DHT22;4466;50.948;4.832;2024-02-26T02:09:14;7.20;99.90
8860;DHT22;4466;50.948;4.832;2024-02-26T02:11:40;7.20;99.90
8860;DHT22;4466;50.948;4.832;2024-02-26T02:14:06;7.20;99.90
8860;DHT22;4466;50.948;4.832;2024-02-26T02:16:32;7.20;99.90
8860;DHT22;4466;50.948;4.832;2024-02-26T02:18:58;7.20;99.90
8860;DHT22;4466;50.948;4.832;2024-02-26T02:21:24;7.20;99.90
8860;DHT22;4466;50.948;4.832;2024-02-26T02:23:49;7.20;99.90
8860;DHT22;4466;50.948;4.832;2024-02-26T02:26:16;7.20;99.90
8860;DHT22;4466;50.948;4.832;2024-02-26T02:28:42;7.20;99.90
8860;DHT22;4466;50.948;4.832;2024-02-26T02:31:07;7.10;99.90
8860;DHT22;4466;50.948;4.832;2024-02-26T02:33:34;7.20;99.90
8860;DHT22;4466;50.948;4.832;2024-02-26T02:36:00;7.20;99.90
8860;DHT22;4466;50.948;4.832;2024-02-26T02:38:26;7.10;99.90
8860;DHT22;4466;50.948;4.832;2024-02-26T02:40:53;7.10;99.90
8860;DHT22;4466;50.948;4.832;2024-02-26T02:43:18;7.10;99.90
8860;DHT22;4466;50.948;4.832;2024-02-26T02:45:44;7.10;99.90
8860;DHT22;4466;50.948;4.832;2024-02-26T02:48:11;7.10;99.90
8860;DHT22;4466;50.948;4.832;2024-02-26T02:50:37;7.10;99.90
8860;DHT22;4466;50.948;4.832;2024-02-26T02:53:02;7.10;99.90
8860;DHT22;4466;50.948;4.832;2024-02-26T02:55:28;7.10;99.90
8860;DHT22;4466;50.948;4.832;2024-02-26T02:57:54;7.10;99.90
8860;DHT22;4466;50.948;4.832;2024-02-26T03:00:19;7.00;99.90
8860;DHT22;4466;50.948;4.832;2024-02-26T03:02:45;7.00;99.90
8860;DHT22;4466;50.948;4.832;2024-02-26T03:05:11;7.00;99.90
8860;DHT22;4466;50.948;4.832;2024-02-26T03:07:37;7.10;99.90
8860;DHT22;4466;50.948;4.832;2024-02-26T03:10:03;7.10;99.90
8860;DHT22;4466;50.948;4.832;2024-02-26T03:12:30;7.00;99.90
8860;DHT22;4466;50.948;4.832;2024-02-26T03:14:55;7.00;99.90
8860;DHT22;4466;50.948;4.832;2024-02-26T03:17:21;7.00;99.90
8860;DHT22;4466;50.948;4.832;2024-02-26T03:19:49;7.00;99.90
8860;DHT22;4466;50.948;4.832;2024-02-26T03:22:18;7.00;99.90
8860;DHT22;4466;50.948;4.832;2024-02-26T03:24:44;7.00;99.90
8860;DHT22;4466;50.948;4.832;2024-02-26T03:27:10;7.00;99.90
8860;DHT22;4466;50.948;4.832;2024-02-26T03:29:37;7.00;99.90
8860;DHT22;4466;50.948;4.832;2024-02-26T03:32:03;7.00;99.90
8860;DHT22;4466;50.948;4.832;2024-02-26T03:34:29;6.90;99.90
8860;DHT22;4466;50.948;4.832;2024-02-26T03:36:56;6.90;99.90
8860;DHT22;4466;50.948;4.832;2024-02-26T03:39:22;6.90;99.90
8860;DHT22;4466;50.948;4.832;2024-02-26T03:41:48;6.90;99.90
8860;DHT22;4466;50.948;4.832;2024-02-26T03:44:14;6.90;99.90
8860;DHT22;4466;50.948;4.832;2024-02-26T03:46:40;6.90;99.90
8860;DHT22;4466;50.948;4.832;2024-02-26T03:49:08;6.90;99.90
8860;DHT22;4466;50.948;4.832;2024-02-26T03:51:33;6.90;99.90
8860;DHT22;4466;50.948;4.832;2024-02-26T03:53:59;6.90;99.90
8860;DHT22;4466;50.948;4.832;2024-02-26T03:56:26;7.00;99.90
8860;DHT22;4466;50.948;4.832;2024-02-26T03:58:52;6.90;99.90
8860;DHT22;4466;50.948;4.832;2024-02-26T04:01:17;6.90;99.90
8860;DHT22;4466;50.948;4.832;2024-02-26T04:03:43;6.90;99.90
8860;DHT22;4466;50.948;4.832;2024-02-26T04:06:10;6.90;99.90
8860;DHT22;4466;50.948;4.832;2024-02-26T04:08:45;6.90;99.90
8860;DHT22;4466;50.948;4.832;2024-02-26T04:11:10;6.90;99.90
8860;DHT22;4466;50.948;4.832;2024-02-26T04:13:36;6.90;99.90
8860;DHT22;4466;50.948;4.832;2024-02-26T04:16:05;6.90;99.90
8860;DHT22;4466;50.948;4.832;2024-02-26T04:18:32;6.90;99.90
8860;DHT22;4466;50.948;4.832;2024-02-26T04:20:58;6.80;99.90
8860;DHT22;4466;50.948;4.832;2024-02-26T04:23:24;6.90;99.90
8860;DHT22;4466;50.948;4.832;2024-02-26T04:25:50;6.90;99.90
8860;DHT22;4466;50.948;4.832;2024-02-26T04:28:15;6.90;99.90
8860;DHT22;4466;50.948;4.832;2024-02-26T04:30:41;6.90;99.90
8860;DHT22;4466;50.948;4.832;2024-02-26T04:33:07;6.90;99.90
8860;DHT22;4466;50.948;4.832;2024-02-26T04:35:33;6.90;99.90
8860;DHT22;4466;50.948;4.832;2024-02-26T04:38:00;6.90;99.90
8860;DHT22;4466;50.948;4.832;2024-02-26T04:40:26;6.90;99.90
8860;DHT22;4466;50.948;4.832;2024-02-26T04:42:52;6.90;99.90
8860;DHT22;4466;50.948;4.832;2024-02-26T04:45:17;6.90;99.90
8860;DHT22;4466;50.948;4.832;2024-02-26T04:47:43;6.90;99.90
8860;DHT22;4466;50.948;4.832;2024-02-26T04:50:09;6.90;99.90
8860;DHT22;4466;50.948;4.832;2024-02-26T04:52:34;6.90;99.90
8860;DHT22;4466;50.948;4.832;2024-02-26T04:55:00;6.90;99.90
8860;DHT22;4466;50.948;4.832;2024-02-26T04:57:26;6.90;99.90
8860;DHT22;4466;50.948;4.832;2024-02-26T04:59:52;6.90;99.90
8860;DHT22;4466;50.948;4.832;2024-02-26T05:02:17;6.90;99.90
8860;DHT22;4466;50.948;4.832;2024-02-26T05:04:43;7.00;99.90
8860;DHT22;4466;50.948;4.832;2024-02-26T05:07:09;7.00;99.90
8860;DHT22;4466;50.948;4.832;2024-02-26T05:09:35;7.00;99.90
8860;DHT22;4466;50.948;4.832;2024-02-26T05:12:01;6.90;99.90
8860;DHT22;4466;50.948;4.832;2024-02-26T05:14:27;6.90;99.90
8860;DHT22;4466;50.948;4.832;2024-02-26T05:16:52;6.90;99.90
8860;DHT22;4466;50.948;4.832;2024-02-26T05:19:18;6.80;99.90
8860;DHT22;4466;50.948;4.832;2024-02-26T05:21:44;6.80;99.90
8860;DHT22;4466;50.948;4.832;2024-02-26T05:24:10;6.80;99.90
8860;DHT22;4466;50.948;4.832;2024-02-26T05:26:35;6.80;99.90
8860;DHT22;4466;50.948;4.832;2024-02-26T05:29:01;6.80;99.90
8860;DHT22;4466;50.948;4.832;2024-02-26T05:31:28;6.80;99.90
8860;DHT22;4466;50.948;4.832;2024-02-26T05:33:54;6.90;99.90
8860;DHT22;4466;50.948;4.832;2024-02-26T05:36:23;6.80;99.90
8860;DHT22;4466;50.948;4.832;2024-02-26T05:38:49;6.80;99.90
8860;DHT22;4466;50.948;4.832;2024-02-26T05:41:18;6.80;99.90
8860;DHT22;4466;50.948;4.832;2024-02-26T05:43:49;6.80;99.90
8860;DHT22;4466;50.948;4.832;2024-02-26T05:46:17;6.90;99.90
8860;DHT22;4466;50.948;4.832;2024-02-26T05:48:47;6.80;99.90
8860;DHT22;4466;50.948;4.832;2024-02-26T05:51:13;6.80;99.90
8860;DHT22;4466;50.948;4.832;2024-02-26T05:53:38;6.80;99.90
8860;DHT22;4466;50.948;4.832;2024-02-26T05:56:04;6.80;99.90
8860;DHT22;4466;50.948;4.832;2024-02-26T05:58:31;6.80;99.90
8860;DHT22;4466;50.948;4.832;2024-02-26T06:00:56;6.80;99.90
8860;DHT22;4466;50.948;4.832;2024-02-26T06:03:22;6.80;99.90
8860;DHT22;4466;50.948;4.832;2024-02-26T06:05:48;6.80;99.90
8860;DHT22;4466;50.948;4.832;2024-02-26T06:08:13;6.80;99.90
8860;DHT22;4466;50.948;4.832;2024-02-26T06:10:39;6.80;99.90
8860;DHT22;4466;50.948;4.832;2024-02-26T06:13:05;6.80;99.90
8860;DHT22;4466;50.948;4.832;2024-02-26T06:15:30;6.80;99.90
8860;DHT22;4466;50.948;4.832;2024-02-26T06:17:56;6.70;99.90
8860;DHT22;4466;50.948;4.832;2024-02-26T06:20:22;6.70;99.90
8860;DHT22;4466;50.948;4.832;2024-02-26T06:22:47;6.60;99.90
8860;DHT22;4466;50.948;4.832;2024-02-26T06:25:13;6.60;99.90
8860;DHT22;4466;50.948;4.832;2024-02-26T06:27:39;6.60;99.90
8860;DHT22;4466;50.948;4.832;2024-02-26T06:30:05;6.60;99.90
8860;DHT22;4466;50.948;4.832;2024-02-26T06:32:30;6.60;99.90
8860;DHT22;4466;50.948;4.832;2024-02-26T06:34:56;6.60;99.90
8860;DHT22;4466;50.948;4.832;2024-02-26T06:37:22;6.60;99.90
8860;DHT22;4466;50.948;4.832;2024-02-26T06:39:47;6.60;99.90
8860;DHT22;4466;50.948;4.832;2024-02-26T06:42:13;6.60;99.90
8860;DHT22;4466;50.948;4.832;2024-02-26T06:44:39;6.50;99.90
8860;DHT22;4466;50.948;4.832;2024-02-26T06:47:05;6.60;99.90
8860;DHT22;4466;50.948;4.832;2024-02-26T06:49:31;6.60;99.90
8860;DHT22;4466;50.948;4.832;2024-02-26T06:51:56;6.50;99.90
8860;DHT22;4466;50.948;4.832;2024-02-26T06:54:22;6.50;99.90
8860;DHT22;4466;50.948;4.832;2024-02-26T06:56:48;6.50;99.90
8860;DHT22;4466;50.948;4.832;2024-02-26T06:59:13;6.50;99.90
8860;DHT22;4466;50.948;4.832;2024-02-26T07:01:42;6.50;99.90
8860;DHT22;4466;50.948;4.832;2024-02-26T07:04:08;6.50;99.90
8860;DHT22;4466;50.948;4.832;2024-02-26T07:06:36;6.50;99.90
8860;DHT22;4466;50.948;4.832;2024-02-26T07:09:02;6.50;99.90
8860;DHT22;4466;50.948;4.832;2024-02-26T07:11:27;6.50;99.90
8860;DHT22;4466;50.948;4.832;2024-02-26T07:13:53;6.50;99.90
8860;DHT22;4466;50.948;4.832;2024-02-26T07:16:19;6.60;99.90
8860;DHT22;4466;50.948;4.832;2024-02-26T07:18:44;6.60;99.90
8860;DHT22;4466;50.948;4.832;2024-02-26T07:21:12;6.60;99.90
8860;DHT22;4466;50.948;4.832;2024-02-26T07:23:37;6.50;99.90
8860;DHT22;4466;50.948;4.832;2024-02-26T07:26:03;6.60;99.90
8860;DHT22;4466;50.948;4.832;2024-02-26T07:28:29;6.50;99.90
8860;DHT22;4466;50.948;4.832;2024-02-26T07:30:54;6.50;99.90
8860;DHT22;4466;50.948;4.832;2024-02-26T07:33:20;6.50;99.90
8860;DHT22;4466;50.948;4.832;2024-02-26T07:35:46;6.60;99.90
8860;DHT22;4466;50.948;4.832;2024-02-26T07:38:12;6.60;99.90
8860;DHT22;4466;50.948;4.832;2024-02-26T07:40:39;6.50;99.90
8860;DHT22;4466;50.948;4.832;2024-02-26T07:43:04;6.50;99.90
8860;DHT22;4466;50.948;4.832;2024-02-26T07:45:30;6.60;99.90
8860;DHT22;4466;50.948;4.832;2024-02-26T07:47:56;6.60;99.90
8860;DHT22;4466;50.948;4.832;2024-02-26T07:50:21;6.60;99.90
8860;DHT22;4466;50.948;4.832;2024-02-26T07:52:47;6.60;99.90
8860;DHT22;4466;50.948;4.832;2024-02-26T07:55:13;6.60;99.90
8860;DHT22;4466;50.948;4.832;2024-02-26T07:57:42;6.60;99.90
8860;DHT22;4466;50.948;4.832;2024-02-26T08:00:09;6.60;99.90
8860;DHT22;4466;50.948;4.832;2024-02-26T08:02:36;6.60;99.90
8860;DHT22;4466;50.948;4.832;2024-02-26T08:05:02;6.60;99.90
8860;DHT22;4466;50.948;4.832;2024-02-26T08:07:28;6.60;99.90
8860;DHT22;4466;50.948;4.832;2024-02-26T08:09:54;6.60;99.90
8860;DHT22;4466;50.948;4.832;2024-02-26T08:12:19;6.60;99.90
8860;DHT22;4466;50.948;4.832;2024-02-26T08:14:45;6.60;99.90
8860;DHT22;4466;50.948;4.832;2024-02-26T08:17:11;6.60;99.90
8860;DHT22;4466;50.948;4.832;2024-02-26T08:19:36;6.60;99.90
8860;DHT22;4466;50.948;4.832;2024-02-26T08:22:02;6.60;99.90
8860;DHT22;4466;50.948;4.832;2024-02-26T08:24:28;6.60;99.90
8860;DHT22;4466;50.948;4.832;2024-02-26T08:26:54;6.60;99.90
8860;DHT22;4466;50.948;4.832;2024-02-26T08:29:19;6.60;99.90
8860;DHT22;4466;50.948;4.832;2024-02-26T08:31:45;6.60;99.90
8860;DHT22;4466;50.948;4.832;2024-02-26T08:34:11;6.60;99.90
8860;DHT22;4466;50.948;4.832;2024-02-26T08:36:36;6.60;99.90
8860;DHT22;4466;50.948;4.832;2024-02-26T08:39:03;6.60;99.90
8860;DHT22;4466;50.948;4.832;2024-02-26T08:41:29;6.60;99.90
8860;DHT22;4466;50.948;4.832;2024-02-26T08:43:55;6.60;99.90
8860;DHT22;4466;50.948;4.832;2024-02-26T08:46:21;6.60;99.90
8860;DHT22;4466;50.948;4.832;2024-02-26T08:48:46;6.60;99.90
8860;DHT22;4466;50.948;4.832;2024-02-26T08:51:12;6.60;99.90
8860;DHT22;4466;50.948;4.832;2024-02-26T08:53:38;6.60;99.90
8860;DHT22;4466;50.948;4.832;2024-02-26T08:56:05;6.60;99.90
8860;DHT22;4466;50.948;4.832;2024-02-26T08:58:30;6.60;99.90
8860;DHT22;4466;50.948;4.832;2024-02-26T09:00:56;6.60;99.90
8860;DHT22;4466;50.948;4.832;2024-02-26T09:03:22;6.60;99.90
8860;DHT22;4466;50.948;4.832;2024-02-26T09:05:48;6.60;99.90
8860;DHT22;4466;50.948;4.832;2024-02-26T09:08:14;6.60;99.90
8860;DHT22;4466;50.948;4.832;2024-02-26T09:10:40;6.60;99.90
8860;DHT22;4466;50.948;4.832;2024-02-26T09:13:05;6.60;99.90
8860;DHT22;4466;50.948;4.832;2024-02-26T09:15:31;6.60;99.90
8860;DHT22;4466;50.948;4.832;2024-02-26T09:17:57;6.60;99.90
8860;DHT22;4466;50.948;4.832;2024-02-26T09:20:22;6.70;99.90
8860;DHT22;4466;50.948;4.832;2024-02-26T09:22:49;6.60;99.90
8860;DHT22;4466;50.948;4.832;2024-02-26T09:25:16;6.60;99.90
8860;DHT22;4466;50.948;4.832;2024-02-26T09:27:45;6.70;99.90
8860;DHT22;4466;50.948;4.832;2024-02-26T09:30:11;6.60;99.90
8860;DHT22;4466;50.948;4.832;2024-02-26T09:32:37;6.60;99.90
8860;DHT22;4466;50.948;4.832;2024-02-26T09:35:03;6.60;99.90
8860;DHT22;4466;50.948;4.832;2024-02-26T09:37:29;6.60;99.90
8860;DHT22;4466;50.948;4.832;2024-02-26T09:39:55;6.60;99.90
8860;DHT22;4466;50.948;4.832;2024-02-26T09:42:21;6.60;99.90
8860;DHT22;4466;50.948;4.832;2024-02-26T09:44:53;6.60;99.90
8860;DHT22;4466;50.948;4.832;2024-02-26T09:47:23;6.60;99.90
8860;DHT22;4466;50.948;4.832;2024-02-26T09:49:49;6.60;99.90
8860;DHT22;4466;50.948;4.832;2024-02-26T09:52:16;6.60;99.90
8860;DHT22;4466;50.948;4.832;2024-02-26T09:54:45;6.70;99.90
8860;DHT22;4466;50.948;4.832;2024-02-26T09:57:14;6.60;99.90
8860;DHT22;4466;50.948;4.832;2024-02-26T09:59:42;6.70;99.90
8860;DHT22;4466;50.948;4.832;2024-02-26T10:02:12;6.70;99.90
8860;DHT22;4466;50.948;4.832;2024-02-26T10:04:40;6.60;99.90
8860;DHT22;4466;50.948;4.832;2024-02-26T10:07:11;6.60;99.90
8860;DHT22;4466;50.948;4.832;2024-02-26T10:09:37;6.60;99.90
8860;DHT22;4466;50.948;4.832;2024-02-26T10:12:04;6.60;99.90
8860;DHT22;4466;50.948;4.832;2024-02-26T10:14:30;6.60;99.90
8860;DHT22;4466;50.948;4.832;2024-02-26T10:16:56;6.60;99.90
8860;DHT22;4466;50.948;4.832;2024-02-26T10:19:26;6.60;99.90
8860;DHT22;4466;50.948;4.832;2024-02-26T10:21:59;6.50;99.90
8860;DHT22;4466;50.948;4.832;2024-02-26T10:24:26;6.50;99.90
8860;DHT22;4466;50.948;4.832;2024-02-26T10:26:52;6.50;99.90
8860;DHT22;4466;50.948;4.832;2024-02-26T10:29:19;6.50;99.90
8860;DHT22;4466;50.948;4.832;2024-02-26T10:31:45;6.60;99.90
8860;DHT22;4466;50.948;4.832;2024-02-26T10:34:11;6.60;99.90
8860;DHT22;4466;50.948;4.832;2024-02-26T10:36:38;6.60;99.90
8860;DHT22;4466;50.948;4.832;2024-02-26T10:39:06;6.60;99.90
8860;DHT22;4466;50.948;4.832;2024-02-26T10:41:33;6.60;99.90
8860;DHT22;4466;50.948;4.832;2024-02-26T10:44:00;6.60;99.90
8860;DHT22;4466;50.948;4.832;2024-02-26T10:46:26;6.60;99.90
8860;DHT22;4466;50.948;4.832;2024-02-26T10:48:52;6.60;99.90
8860;DHT22;4466;50.948;4.832;2024-02-26T10:51:26;6.60;99.90
8860;DHT22;4466;50.948;4.832;2024-02-26T10:53:56;6.70;99.90
8860;DHT22;4466;50.948;4.832;2024-02-26T10:56:33;6.60;99.90
8860;DHT22;4466;50.948;4.832;2024-02-26T10:58:59;6.60;99.90
8860;DHT22;4466;50.948;4.832;2024-02-26T11:01:27;6.70;99.90
8860;DHT22;4466;50.948;4.832;2024-02-26T11:03:55;6.70;99.90
8860;DHT22;4466;50.948;4.832;2024-02-26T11:06:21;6.70;99.90
8860;DHT22;4466;50.948;4.832;2024-02-26T11:08:51;6.60;99.90
8860;DHT22;4466;50.948;4.832;2024-02-26T11:11:17;6.60;99.90
8860;DHT22;4466;50.948;4.832;2024-02-26T11:13:48;6.60;99.90
8860;DHT22;4466;50.948;4.832;2024-02-26T11:16:21;6.60;99.90
8860;DHT22;4466;50.948;4.832;2024-02-26T11:18:48;6.60;99.90
8860;DHT22;4466;50.948;4.832;2024-02-26T11:21:17;6.50;99.90
8860;DHT22;4466;50.948;4.832;2024-02-26T11:23:53;6.50;99.90
8860;DHT22;4466;50.948;4.832;2024-02-26T11:26:20;6.50;99.90
8860;DHT22;4466;50.948;4.832;2024-02-26T11:28:48;6.50;99.90
8860;DHT22;4466;50.948;4.832;2024-02-26T11:31:15;6.50;99.90
8860;DHT22;4466;50.948;4.832;2024-02-26T11:33:40;6.40;99.90
8860;DHT22;4466;50.948;4.832;2024-02-26T11:36:13;6.50;99.90
8860;DHT22;4466;50.948;4.832;2024-02-26T11:38:39;6.50;99.90
8860;DHT22;4466;50.948;4.832;2024-02-26T11:41:06;6.40;99.90
8860;DHT22;4466;50.948;4.832;2024-02-26T11:44:11;6.40;99.90
8860;DHT22;4466;50.948;4.832;2024-02-26T11:46:41;6.40;99.90
8860;DHT22;4466;50.948;4.832;2024-02-26T11:51:55;6.40;99.90
8860;DHT22;4466;50.948;4.832;2024-02-26T11:57:38;6.40;99.90
8860;DHT22;4466;50.948;4.832;2024-02-26T12:00:13;6.40;99.90
8860;DHT22;4466;50.948;4.832;2024-02-26T12:02:46;6.40;99.90
8860;DHT22;4466;50.948;4.832;2024-02-26T12:05:16;6.40;99.90
8860;DHT22;4466;50.948;4.832;2024-02-26T12:07:47;6.50;99.90
8860;DHT22;4466;50.948;4.832;2024-02-26T12:10:38;6.50;99.90
8860;DHT22;4466;50.948;4.832;2024-02-26T12:13:14;6.50;99.90
8860;DHT22;4466;50.948;4.832;2024-02-26T12:16:06;6.50;99.90
8860;DHT22;4466;50.948;4.832;2024-02-26T12:18:31;6.50;99.90
8860;DHT22;4466;50.948;4.832;2024-02-26T12:21:03;6.50;99.90
8860;DHT22;4466;50.948;4.832;2024-02-26T12:23:29;6.50;99.90
8860;DHT22;4466;50.948;4.832;2024-02-26T12:25:59;6.60;99.90
8860;DHT22;4466;50.948;4.832;2024-02-26T12:28:31;6.60;99.90
8860;DHT22;4466;50.948;4.832;2024-02-26T12:30:57;6.60;99.90
8860;DHT22;4466;50.948;4.832;2024-02-26T12:33:25;6.60;99.90
8860;DHT22;4466;50.948;4.832;2024-02-26T12:35:52;6.70;99.90
8860;DHT22;4466;50.948;4.832;2024-02-26T12:38:18;6.70;99.90
8860;DHT22;4466;50.948;4.832;2024-02-26T12:40:44;6.80;99.90
8860;DHT22;4466;50.948;4.832;2024-02-26T12:43:10;6.80;99.90
8860;DHT22;4466;50.948;4.832;2024-02-26T12:45:42;6.80;99.90
8860;DHT22;4466;50.948;4.832;2024-02-26T12:48:09;6.90;99.90
8860;DHT22;4466;50.948;4.832;2024-02-26T12:50:35;6.90;99.90
8860;DHT22;4466;50.948;4.832;2024-02-26T12:53:00;6.90;99.90
8860;DHT22;4466;50.948;4.832;2024-02-26T12:55:27;7.00;99.90
8860;DHT22;4466;50.948;4.832;2024-02-26T12:57:53;6.90;99.90
8860;DHT22;4466;50.948;4.832;2024-02-26T13:00:27;6.90;99.90
8860;DHT22;4466;50.948;4.832;2024-02-26T13:02:54;6.90;99.90
8860;DHT22;4466;50.948;4.832;2024-02-26T13:05:21;6.90;99.90
8860;DHT22;4466;50.948;4.832;2024-02-26T13:07:48;6.90;99.90
8860;DHT22;4466;50.948;4.832;2024-02-26T13:10:14;6.80;99.90
8860;DHT22;4466;50.948;4.832;2024-02-26T13:12:47;6.90;99.90
8860;DHT22;4466;50.948;4.832;2024-02-26T13:15:17;6.80;99.90
8860;DHT22;4466;50.948;4.832;2024-02-26T13:17:44;6.80;99.90
8860;DHT22;4466;50.948;4.832;2024-02-26T13:20:09;6.80;99.90
8860;DHT22;4466;50.948;4.832;2024-02-26T13:22:36;6.80;99.90
8860;DHT22;4466;50.948;4.832;2024-02-26T13:25:02;6.80;99.90
8860;DHT22;4466;50.948;4.832;2024-02-26T13:27:29;6.80;99.90
8860;DHT22;4466;50.948;4.832;2024-02-26T13:30:11;6.90;99.90
8860;DHT22;4466;50.948;4.832;2024-02-26T13:32:38;6.90;99.90
8860;DHT22;4466;50.948;4.832;2024-02-26T13:35:06;6.90;99.90
8860;DHT22;4466;50.948;4.832;2024-02-26T13:37:33;6.90;99.90
8860;DHT22;4466;50.948;4.832;2024-02-26T13:39:59;6.90;99.90
8860;DHT22;4466;50.948;4.832;2024-02-26T13:42:24;6.90;99.90
8860;DHT22;4466;50.948;4.832;2024-02-26T13:44:50;6.90;99.90
8860;DHT22;4466;50.948;4.832;2024-02-26T13:49:51;6.80;99.90
8860;DHT22;4466;50.948;4.832;2024-02-26T13:52:17;6.80;99.90
8860;DHT22;4466;50.948;4.832;2024-02-26T13:54:43;6.80;99.90
8860;DHT22;4466;50.948;4.832;2024-02-26T13:57:08;6.90;99.90
8860;DHT22;4466;50.948;4.832;2024-02-26T13:59:35;6.80;99.90
8860;DHT22;4466;50.948;4.832;2024-02-26T14:02:00;6.80;99.90
8860;DHT22;4466;50.948;4.832;2024-02-26T14:04:26;6.80;99.90
8860;DHT22;4466;50.948;4.832;2024-02-26T14:06:51;6.80;99.90
8860;DHT22;4466;50.948;4.832;2024-02-26T14:09:17;6.80;99.90
8860;DHT22;4466;50.948;4.832;2024-02-26T14:11:47;6.80;99.90
8860;DHT22;4466;50.948;4.832;2024-02-26T14:14:13;6.70;99.90
8860;DHT22;4466;50.948;4.832;2024-02-26T14:16:38;6.80;99.90
8860;DHT22;4466;50.948;4.832;2024-02-26T14:19:04;6.80;99.90
8860;DHT22;4466;50.948;4.832;2024-02-26T14:21:29;6.70;99.90
8860;DHT22;4466;50.948;4.832;2024-02-26T14:23:56;6.70;99.90
8860;DHT22;4466;50.948;4.832;2024-02-26T14:26:24;6.80;99.90
8860;DHT22;4466;50.948;4.832;2024-02-26T14:28:50;6.70;99.90
8860;DHT22;4466;50.948;4.832;2024-02-26T14:31:19;6.70;99.90
8860;DHT22;4466;50.948;4.832;2024-02-26T14:33:44;6.70;99.90
8860;DHT22;4466;50.948;4.832;2024-02-26T14:36:10;6.60;99.90
8860;DHT22;4466;50.948;4.832;2024-02-26T14:38:37;6.60;99.90
8860;DHT22;4466;50.948;4.832;2024-02-26T14:41:03;6.60;99.90
8860;DHT22;4466;50.948;4.832;2024-02-26T14:43:29;6.60;99.90
8860;DHT22;4466;50.948;4.832;2024-02-26T14:45:57;6.60;99.90
8860;DHT22;4466;50.948;4.832;2024-02-26T14:48:22;6.70;99.90
8860;DHT22;4466;50.948;4.832;2024-02-26T14:50:50;6.60;99.90
8860;DHT22;4466;50.948;4.832;2024-02-26T14:53:16;6.60;99.90
8860;DHT22;4466;50.948;4.832;2024-02-26T14:55:42;6.60;99.90
8860;DHT22;4466;50.948;4.832;2024-02-26T14:58:08;6.70;99.90
8860;DHT22;4466;50.948;4.832;2024-02-26T15:00:36;6.70;99.90
8860;DHT22;4466;50.948;4.832;2024-02-26T15:03:02;6.60;99.90
8860;DHT22;4466;50.948;4.832;2024-02-26T15:05:28;6.60;99.90
8860;DHT22;4466;50.948;4.832;2024-02-26T15:07:54;6.60;99.90
8860;DHT22;4466;50.948;4.832;2024-02-26T15:10:20;6.60;99.90
8860;DHT22;4466;50.948;4.832;2024-02-26T15:12:45;6.60;99.90
8860;DHT22;4466;50.948;4.832;2024-02-26T15:15:11;6.60;99.90
8860;DHT22;4466;50.948;4.832;2024-02-26T15:17:37;6.60;99.90
8860;DHT22;4466;50.948;4.832;2024-02-26T15:20:03;6.50;99.90
8860;DHT22;4466;50.948;4.832;2024-02-26T15:22:28;6.50;99.90
8860;DHT22;4466;50.948;4.832;2024-02-26T15:24:54;6.60;99.90
8860;DHT22;4466;50.948;4.832;2024-02-26T15:27:20;6.50;99.90
8860;DHT22;4466;50.948;4.832;2024-02-26T15:29:45;6.50;99.90
8860;DHT22;4466;50.948;4.832;2024-02-26T15:32:11;6.50;99.90
8860;DHT22;4466;50.948;4.832;2024-02-26T15:34:37;6.60;99.90
8860;DHT22;4466;50.948;4.832;2024-02-26T15:37:03;6.60;99.90
8860;DHT22;4466;50.948;4.832;2024-02-26T15:39:29;6.60;99.90
8860;DHT22;4466;50.948;4.832;2024-02-26T15:41:55;6.60;99.90
8860;DHT22;4466;50.948;4.832;2024-02-26T15:44:22;6.60;99.90
8860;DHT22;4466;50.948;4.832;2024-02-26T15:46:48;6.60;99.90
8860;DHT22;4466;50.948;4.832;2024-02-26T15:49:14;6.60;99.90
8860;DHT22;4466;50.948;4.832;2024-02-26T15:51:40;6.60;99.90
8860;DHT22;4466;50.948;4.832;2024-02-26T15:54:06;6.60;99.90
8860;DHT22;4466;50.948;4.832;2024-02-26T15:56:31;6.60;99.90
8860;DHT22;4466;50.948;4.832;2024-02-26T15:58:57;6.60;99.90
8860;DHT22;4466;50.948;4.832;2024-02-26T16:01:23;6.60;99.90
8860;DHT22;4466;50.948;4.832;2024-02-26T16:03:49;6.60;99.90
8860;DHT22;4466;50.948;4.832;2024-02-26T16:06:31;6.60;99.90
8860;DHT22;4466;50.948;4.832;2024-02-26T16:08:57;6.60;99.90
8860;DHT22;4466;50.948;4.832;2024-02-26T16:11:23;6.60;99.90
8860;DHT22;4466;50.948;4.832;2024-02-26T16:13:51;6.50;99.90
8860;DHT22;4466;50.948;4.832;2024-02-26T16:16:20;6.60;99.90
8860;DHT22;4466;50.948;4.832;2024-02-26T16:21:24;6.50;99.90
8860;DHT22;4466;50.948;4.832;2024-02-26T16:23:49;6.60;99.90
8860;DHT22;4466;50.948;4.832;2024-02-26T16:26:15;6.50;99.90